KALB/ALB METAR and TAF weather

Enter ICAO airport designator
Station Type Date Time Source
KALB METAR 2018/10/21 05:51 UTC NOAA

KALB 210551Z 28008KT 10SM SCT085 OVC100 08/04 A2965 RMK AO2 SLP040 60000 T00780039 10100 20078 53005


Station Type Date Time Source
KALB Decoded METAR 2018/10/21 05:51 UTC NOAA

ALBANY INTERNATIONAL AIRPORT, NY, United States (KALB) 42-45N 73-48W
Oct 21, 2018 - 01:51 AM EDT / 2018.10.21 0551 UTC
Wind: from the W (280 degrees) at 9 MPH (8 KT):0
Visibility: 10 mile(s):0
Sky conditions: overcast
Temperature: 46.0 F (7.8 C)
Dew Point: 39.0 F (3.9 C)
Relative Humidity: 76%
Pressure (altimeter): 29.65 in. Hg (1004 hPa)
Pressure tendency: 0.01 inches (0.5 hPa) higher than three hours ago
ob: KALB 210551Z 28008KT 10SM SCT085 OVC100 08/04 A2965 RMK AO2 SLP040 60000 T00780039 10100 20078 53005
cycle: 6

Station Type Date Time Source
KALB TAF 2018/10/21 06:36 UTC NOAA

TAF KALB 210534Z 2106/2206 28005KT P6SM OVC100
FM211000 33010KT P6SM SCT050 BKN080
FM211400 31016G27KT P6SM SCT050
FM220000 31007KT P6SM SCT050


Example: see airport list